createdAt,value
2024-02-28T00:00:53.134Z,11.32
2024-02-28T00:03:24.866Z,9.73
2024-02-28T00:05:52.018Z,11.63
2024-02-28T00:08:21.413Z,9.60
2024-02-28T00:10:48.381Z,11.03
2024-02-28T00:13:16.902Z,11.40
2024-02-28T00:15:45.952Z,14.13
2024-02-28T00:18:15.430Z,9.93
2024-02-28T00:20:55.389Z,8.47
2024-02-28T00:23:23.105Z,9.53
2024-02-28T00:25:49.937Z,9.00
2024-02-28T00:28:16.680Z,8.70
2024-02-28T00:30:46.215Z,9.20
2024-02-28T00:33:13.280Z,11.23
2024-02-28T00:35:42.997Z,10.27
2024-02-28T00:38:10.499Z,9.40
2024-02-28T00:40:37.280Z,15.00
2024-02-28T00:43:04.342Z,9.87
2024-02-28T00:45:31.104Z,8.27
2024-02-28T00:47:57.953Z,12.45
2024-02-28T00:50:24.912Z,8.23
2024-02-28T00:52:51.874Z,9.00
2024-02-28T00:55:19.850Z,9.40
2024-02-28T00:57:49.197Z,8.33
2024-02-28T01:00:16.532Z,8.73
2024-02-28T01:02:45.880Z,7.97
2024-02-28T01:05:12.920Z,10.13
2024-02-28T01:07:39.921Z,7.87
2024-02-28T01:10:08.134Z,10.17
2024-02-28T01:12:35.725Z,9.13
2024-02-28T01:15:02.525Z,9.17
2024-02-28T01:17:29.328Z,7.90
2024-02-28T01:19:56.315Z,7.70
2024-02-28T01:22:23.144Z,8.80
2024-02-28T01:24:50.116Z,8.97
2024-02-28T01:27:18.249Z,9.87
2024-02-28T01:29:45.145Z,9.17
2024-02-28T01:32:15.118Z,7.37
2024-02-28T01:34:44.073Z,8.53
2024-02-28T01:37:11.042Z,8.57
2024-02-28T01:39:38.254Z,8.77
2024-02-28T01:42:05.316Z,9.57
2024-02-28T01:44:32.085Z,7.67
2024-02-28T01:46:59.507Z,8.17
2024-02-28T01:49:26.671Z,11.27
2024-02-28T01:51:55.576Z,10.33
2024-02-28T01:54:22.782Z,9.87
2024-02-28T01:56:50.228Z,8.73
2024-02-28T01:59:18.904Z,8.60
2024-02-28T02:01:47.163Z,9.10
2024-02-28T02:04:13.954Z,10.50
2024-02-28T02:06:44.969Z,10.07
2024-02-28T02:09:12.433Z,7.87
2024-02-28T02:11:40.711Z,8.70
2024-02-28T02:14:07.685Z,9.00
2024-02-28T02:16:34.377Z,9.03
2024-02-28T02:19:01.277Z,9.97
2024-02-28T02:21:32.107Z,10.60
2024-02-28T02:23:58.822Z,8.87
2024-02-28T02:26:25.830Z,13.43
2024-02-28T02:28:55.090Z,8.63
2024-02-28T02:31:24.072Z,8.00
2024-02-28T02:33:53.404Z,9.07
2024-02-28T02:36:20.365Z,9.13
2024-02-28T02:38:47.163Z,9.47
2024-02-28T02:41:14.096Z,8.97
2024-02-28T02:43:43.615Z,11.60
2024-02-28T02:46:10.531Z,9.13
2024-02-28T02:48:38.181Z,8.13
2024-02-28T02:51:05.088Z,9.97
2024-02-28T02:53:31.848Z,9.93
2024-02-28T02:55:58.719Z,9.83
2024-02-28T02:58:25.536Z,11.57
2024-02-28T03:00:52.331Z,9.10
2024-02-28T03:03:19.149Z,10.20
2024-02-28T03:05:45.913Z,10.63
2024-02-28T03:08:12.661Z,10.70
2024-02-28T03:10:44.224Z,12.17
2024-02-28T03:13:11.097Z,10.07
2024-02-28T03:15:40.520Z,10.30
2024-02-28T03:18:07.412Z,13.47
2024-02-28T03:20:34.221Z,11.90
2024-02-28T03:23:01.304Z,11.07
2024-02-28T03:25:29.277Z,11.77
2024-02-28T03:27:56.642Z,11.40
2024-02-28T03:30:25.889Z,12.23
2024-02-28T03:32:52.691Z,13.37
2024-02-28T03:35:19.383Z,12.37
2024-02-28T03:37:48.278Z,14.07
2024-02-28T03:40:16.151Z,12.27
2024-02-28T03:42:45.340Z,10.63
2024-02-28T03:45:14.475Z,13.97
2024-02-28T03:47:41.229Z,10.17
2024-02-28T03:50:08.629Z,12.43
2024-02-28T03:52:35.529Z,8.90
2024-02-28T03:55:06.879Z,10.00
2024-02-28T03:57:35.846Z,12.17
2024-02-28T04:00:03.787Z,10.93
2024-02-28T04:02:30.530Z,12.83
2024-02-28T04:04:59.385Z,11.43
2024-02-28T04:07:28.235Z,12.68
2024-02-28T04:09:55.046Z,10.07
2024-02-28T04:12:21.828Z,12.10
2024-02-28T04:14:48.639Z,10.23
2024-02-28T04:17:18.375Z,14.27
2024-02-28T04:19:45.035Z,11.97
2024-02-28T04:22:11.754Z,12.83
2024-02-28T04:24:38.489Z,11.53
2024-02-28T04:27:06.826Z,12.13
2024-02-28T04:29:36.088Z,10.40
2024-02-28T04:32:05.063Z,10.87
2024-02-28T04:34:31.788Z,12.83
2024-02-28T04:36:58.517Z,11.03
2024-02-28T04:39:25.342Z,11.83
2024-02-28T04:41:52.136Z,12.73
2024-02-28T04:44:18.839Z,14.40
2024-02-28T04:46:49.960Z,9.40
2024-02-28T04:49:16.820Z,13.33
2024-02-28T04:51:43.548Z,14.03
2024-02-28T04:54:10.254Z,16.23
2024-02-28T04:56:43.686Z,12.93
2024-02-28T04:59:12.773Z,12.88
2024-02-28T05:01:40.489Z,11.47
2024-02-28T05:04:08.058Z,14.33
2024-02-28T05:06:37.635Z,11.60
2024-02-28T05:09:05.973Z,12.00
2024-02-28T05:11:35.483Z,12.20
2024-02-28T05:14:02.401Z,13.00
2024-02-28T05:16:31.591Z,12.63
2024-02-28T05:18:58.461Z,10.77
2024-02-28T05:21:29.915Z,14.13
2024-02-28T05:23:56.811Z,11.83
2024-02-28T05:26:23.602Z,14.03
2024-02-28T05:28:52.501Z,10.70
2024-02-28T05:31:28.307Z,9.73
2024-02-28T05:33:59.543Z,11.00
2024-02-28T05:36:31.034Z,10.43
2024-02-28T05:39:02.192Z,11.83
2024-02-28T05:41:31.327Z,11.50
2024-02-28T05:44:00.247Z,11.93
2024-02-28T05:46:26.970Z,10.87
2024-02-28T05:48:56.168Z,10.50
2024-02-28T05:51:25.179Z,12.95
2024-02-28T05:53:54.418Z,12.00
2024-02-28T05:56:22.417Z,11.03
2024-02-28T05:58:49.417Z,10.27
2024-02-28T06:01:18.606Z,11.33
2024-02-28T06:03:49.551Z,17.37
2024-02-28T06:06:19.264Z,10.50
2024-02-28T06:08:46.283Z,9.73
2024-02-28T06:11:13.056Z,10.97
2024-02-28T06:13:44.694Z,11.70
2024-02-28T06:16:20.185Z,11.07
2024-02-28T06:18:49.503Z,11.27
2024-02-28T06:21:22.766Z,11.53
2024-02-28T06:23:49.526Z,12.20
2024-02-28T06:26:19.139Z,11.93
2024-02-28T06:28:48.832Z,11.10
2024-02-28T06:31:21.666Z,10.70
2024-02-28T06:33:48.423Z,10.03
2024-02-28T06:36:15.646Z,10.47
2024-02-28T06:38:42.972Z,10.67
2024-02-28T06:41:14.440Z,10.98
2024-02-28T06:43:41.186Z,10.90
2024-02-28T06:46:10.648Z,10.57
2024-02-28T06:48:41.951Z,11.93
2024-02-28T06:51:08.736Z,10.40
2024-02-28T06:53:35.906Z,13.77
2024-02-28T06:56:05.311Z,11.53
2024-02-28T06:58:32.985Z,10.83
2024-02-28T07:01:01.438Z,9.43
2024-02-28T07:03:29.345Z,9.85
2024-02-28T07:05:56.230Z,14.97
2024-02-28T07:08:23.041Z,7.83
2024-02-28T07:10:55.148Z,9.33
2024-02-28T07:13:24.847Z,9.43
2024-02-28T07:15:55.710Z,8.97
2024-02-28T07:18:22.640Z,9.77
2024-02-28T07:20:49.364Z,9.97
2024-02-28T07:23:16.100Z,8.70
2024-02-28T07:25:42.934Z,9.10
2024-02-28T07:28:09.776Z,8.10
2024-02-28T07:30:36.913Z,8.07
2024-02-28T07:33:06.603Z,11.55
2024-02-28T07:35:33.754Z,7.93
2024-02-28T07:38:00.488Z,12.93
2024-02-28T07:40:28.814Z,9.13
2024-02-28T07:42:55.559Z,8.50
2024-02-28T07:45:22.782Z,7.17
2024-02-28T07:47:49.538Z,8.03
2024-02-28T07:50:17.381Z,8.00
2024-02-28T07:52:46.299Z,7.50
2024-02-28T07:55:13.113Z,7.60
2024-02-28T07:57:42.085Z,9.33
2024-02-28T08:00:09.213Z,7.80
2024-02-28T08:02:40.257Z,7.33
2024-02-28T08:05:09.694Z,7.93
2024-02-28T08:07:36.428Z,9.17
2024-02-28T08:10:07.041Z,10.00
2024-02-28T08:12:33.978Z,6.73
2024-02-28T08:15:00.743Z,9.33
2024-02-28T08:17:27.526Z,6.83
2024-02-28T08:19:56.728Z,8.00
2024-02-28T08:22:26.622Z,7.72
2024-02-28T08:24:53.682Z,7.07
2024-02-28T08:27:22.004Z,7.90
2024-02-28T08:29:48.823Z,7.20
2024-02-28T08:32:15.565Z,6.83
2024-02-28T08:34:47.219Z,6.80
2024-02-28T08:37:17.023Z,6.97
2024-02-28T08:39:44.209Z,6.43
2024-02-28T08:42:13.493Z,7.63
2024-02-28T08:44:42.950Z,8.10
2024-02-28T08:47:12.120Z,6.53
2024-02-28T08:49:40.631Z,6.30
2024-02-28T08:52:07.561Z,6.07
2024-02-28T08:54:36.777Z,7.03
2024-02-28T08:57:08.620Z,6.80
2024-02-28T08:59:35.351Z,7.70
2024-02-28T09:02:02.474Z,6.50
2024-02-28T09:04:29.874Z,7.03
2024-02-28T09:06:57.052Z,7.40
2024-02-28T09:09:24.447Z,6.80
2024-02-28T09:11:54.644Z,7.82
2024-02-28T09:14:21.438Z,6.53
2024-02-28T09:16:48.936Z,7.27
2024-02-28T09:19:15.687Z,7.70
2024-02-28T09:21:44.703Z,6.80
2024-02-28T09:24:13.942Z,7.03
2024-02-28T09:26:41.567Z,6.07
2024-02-28T09:29:08.387Z,7.40
2024-02-28T09:31:35.169Z,5.67
2024-02-28T09:34:08.571Z,7.13
2024-02-28T09:36:42.896Z,7.57
2024-02-28T09:39:12.332Z,7.83
2024-02-28T09:41:42.317Z,7.17
2024-02-28T09:44:09.434Z,7.93
2024-02-28T09:46:36.696Z,7.07
2024-02-28T09:49:06.864Z,7.17
2024-02-28T09:51:39.584Z,8.90
2024-02-28T09:54:09.856Z,6.93
2024-02-28T09:56:39.124Z,7.13
2024-02-28T09:59:09.319Z,8.10
2024-02-28T10:01:43.184Z,6.53
2024-02-28T10:04:14.856Z,9.07
2024-02-28T10:06:42.363Z,7.40
2024-02-28T10:09:09.167Z,7.60
2024-02-28T10:11:36.806Z,6.73
2024-02-28T10:14:04.078Z,7.10
2024-02-28T10:16:30.824Z,9.30
2024-02-28T10:19:00.109Z,7.70
2024-02-28T10:21:33.979Z,7.75
2024-02-28T10:24:04.298Z,8.53
2024-02-28T10:26:36.891Z,8.77
2024-02-28T10:29:11.368Z,7.53
2024-02-28T10:31:39.438Z,7.57
2024-02-28T10:34:10.729Z,7.60
2024-02-28T10:36:41.756Z,7.23
2024-02-28T10:39:10.996Z,7.27
2024-02-28T10:41:39.349Z,7.13
2024-02-28T10:44:06.173Z,7.87
2024-02-28T10:46:36.385Z,7.80
2024-02-28T10:49:07.442Z,7.27
2024-02-28T10:51:38.303Z,6.73
2024-02-28T10:54:13.396Z,7.83
2024-02-28T10:56:41.982Z,8.27
2024-02-28T10:59:11.750Z,8.13
2024-02-28T11:01:43.429Z,6.83
2024-02-28T11:04:13.836Z,7.10
2024-02-28T11:06:56.697Z,7.53
2024-02-28T11:09:25.169Z,5.80
2024-02-28T11:11:52.751Z,7.03
2024-02-28T11:14:32.114Z,6.40
2024-02-28T11:17:07.084Z,6.67
2024-02-28T11:19:37.132Z,6.87
2024-02-28T11:22:06.986Z,5.97
2024-02-28T11:24:40.685Z,6.27
2024-02-28T11:27:07.912Z,6.47
2024-02-28T11:29:34.906Z,6.80
2024-02-28T11:32:01.657Z,9.20
2024-02-28T11:34:29.297Z,6.63
2024-02-28T11:36:56.972Z,7.27
2024-02-28T11:39:26.365Z,5.87
2024-02-28T11:41:56.487Z,6.30
2024-02-28T11:44:23.257Z,6.07
2024-02-28T11:46:54.550Z,6.73
2024-02-28T11:49:23.485Z,6.80
2024-02-28T11:51:50.753Z,7.27
2024-02-28T11:54:17.620Z,7.27
2024-02-28T11:56:44.546Z,7.90
2024-02-28T11:59:15.123Z,7.43
2024-02-28T12:01:45.118Z,6.50
2024-02-28T12:04:14.405Z,7.17
2024-02-28T12:06:41.994Z,6.83
2024-02-28T12:09:10.822Z,6.43
2024-02-28T12:11:38.675Z,7.03
2024-02-28T12:14:09.980Z,8.60
2024-02-28T12:16:43.465Z,7.83
2024-02-28T12:19:11.624Z,7.00
2024-02-28T12:21:41.772Z,7.07
2024-02-28T12:24:12.229Z,5.43
2024-02-28T12:26:40.109Z,6.93
2024-02-28T12:29:07.587Z,6.87
2024-02-28T12:31:36.810Z,6.23
2024-02-28T12:34:05.140Z,7.00
2024-02-28T12:36:33.694Z,7.10
2024-02-28T12:39:00.769Z,8.90
2024-02-28T12:41:28.310Z,7.70
2024-02-28T12:43:57.865Z,6.47
2024-02-28T12:46:24.569Z,6.43
2024-02-28T12:48:51.328Z,7.03
2024-02-28T12:51:38.871Z,6.97
2024-02-28T12:54:06.158Z,8.30
2024-02-28T12:56:33.005Z,6.73
2024-02-28T12:59:00.216Z,8.53
2024-02-28T13:01:27.934Z,8.37
2024-02-28T13:03:55.350Z,8.77
2024-02-28T13:06:23.048Z,7.57
2024-02-28T13:08:52.852Z,7.87
2024-02-28T13:11:21.629Z,7.50
2024-02-28T13:13:52.687Z,8.32
2024-02-28T13:16:24.657Z,7.60
2024-02-28T13:18:51.493Z,7.30
2024-02-28T13:21:18.436Z,7.40
2024-02-28T13:23:47.410Z,9.83
2024-02-28T13:26:19.866Z,8.33
2024-02-28T13:28:51.262Z,7.70
2024-02-28T13:31:22.525Z,7.27
2024-02-28T13:33:50.299Z,7.13
2024-02-28T13:36:17.635Z,7.13
2024-02-28T13:38:45.310Z,7.30
2024-02-28T13:41:14.224Z,6.37
2024-02-28T13:43:43.112Z,7.00
2024-02-28T13:46:12.172Z,7.37
2024-02-28T13:48:39.393Z,7.73
2024-02-28T13:51:06.350Z,7.07
2024-02-28T13:53:33.162Z,6.00
2024-02-28T13:56:02.524Z,7.20
2024-02-28T13:58:36.632Z,7.00
2024-02-28T14:01:10.529Z,8.50
2024-02-28T14:03:42.708Z,7.00
2024-02-28T14:06:12.159Z,7.77
2024-02-28T14:08:43.190Z,7.00
2024-02-28T14:11:11.052Z,7.43
2024-02-28T14:13:40.910Z,7.07
2024-02-28T14:16:07.904Z,7.33
2024-02-28T14:18:34.825Z,6.50
2024-02-28T14:21:05.668Z,7.10
2024-02-28T14:23:34.028Z,7.10
2024-02-28T14:26:00.799Z,7.80
2024-02-28T14:28:27.516Z,8.17
2024-02-28T14:30:54.975Z,7.70
2024-02-28T14:33:22.481Z,6.83
2024-02-28T14:35:52.794Z,9.07
2024-02-28T14:38:21.802Z,8.13
2024-02-28T14:40:48.650Z,7.47
2024-02-28T14:43:17.629Z,9.90
2024-02-28T14:45:44.429Z,7.10
2024-02-28T14:48:11.443Z,7.90
2024-02-28T14:50:40.680Z,7.60
2024-02-28T14:53:09.805Z,8.03
2024-02-28T14:55:36.968Z,8.70
2024-02-28T14:58:03.779Z,7.93
2024-02-28T15:00:33.298Z,8.67
2024-02-28T15:03:00.079Z,8.00
2024-02-28T15:05:29.281Z,8.10
2024-02-28T15:07:56.444Z,8.67
2024-02-28T15:10:23.660Z,8.30
2024-02-28T15:12:51.016Z,12.57
2024-02-28T15:15:17.980Z,9.40
2024-02-28T15:17:47.124Z,12.17
2024-02-28T15:20:13.869Z,14.60
2024-02-28T15:22:40.783Z,16.23
2024-02-28T15:25:12.733Z,9.97
2024-02-28T15:27:42.171Z,18.53
2024-02-28T15:30:09.612Z,15.87
2024-02-28T15:32:40.744Z,9.10
2024-02-28T15:35:09.233Z,13.50
2024-02-28T15:37:36.539Z,10.20
2024-02-28T15:40:07.110Z,10.07
2024-02-28T15:42:34.901Z,9.23
2024-02-28T15:45:01.785Z,11.60
2024-02-28T15:47:34.285Z,8.33
2024-02-28T15:50:04.289Z,12.93
2024-02-28T15:52:31.416Z,8.73
2024-02-28T15:54:58.226Z,9.60
2024-02-28T15:57:27.572Z,9.70
2024-02-28T15:59:54.331Z,9.00
2024-02-28T16:02:21.489Z,10.07
2024-02-28T16:04:50.842Z,17.17
2024-02-28T16:07:20.119Z,8.57
2024-02-28T16:09:46.923Z,8.60
2024-02-28T16:12:16.383Z,10.33
2024-02-28T16:14:43.298Z,9.02
2024-02-28T16:17:16.523Z,9.50
2024-02-28T16:19:43.812Z,8.70
2024-02-28T16:22:12.894Z,8.57
2024-02-28T16:24:39.759Z,8.83
2024-02-28T16:27:06.760Z,9.20
2024-02-28T16:29:36.230Z,10.03
2024-02-28T16:32:03.390Z,9.17
2024-02-28T16:34:30.338Z,11.80
2024-02-28T16:36:58.720Z,8.73
2024-02-28T16:39:27.997Z,10.63
2024-02-28T16:41:56.860Z,9.07
2024-02-28T16:44:25.762Z,8.50
2024-02-28T16:46:53.323Z,8.50
2024-02-28T16:49:21.730Z,8.43
2024-02-28T16:51:48.640Z,9.87
2024-02-28T16:54:15.465Z,9.07
2024-02-28T16:56:44.661Z,9.45
2024-02-28T16:59:14.286Z,8.70
2024-02-28T17:01:43.829Z,11.30
2024-02-28T17:04:11.029Z,7.80
2024-02-28T17:06:40.565Z,9.90
2024-02-28T17:09:10.167Z,9.60
2024-02-28T17:11:39.206Z,10.40
2024-02-28T17:14:06.014Z,7.73
2024-02-28T17:16:37.949Z,9.23
2024-02-28T17:19:05.440Z,8.13
2024-02-28T17:21:36.605Z,10.50
2024-02-28T17:24:05.594Z,8.03
2024-02-28T17:26:36.699Z,7.27
2024-02-28T17:29:04.429Z,7.03
2024-02-28T17:31:33.324Z,7.40
2024-02-28T17:34:00.076Z,7.17
2024-02-28T17:36:29.813Z,8.60
2024-02-28T17:38:56.523Z,6.47
2024-02-28T17:41:23.311Z,7.30
2024-02-28T17:43:52.651Z,8.37
2024-02-28T17:46:19.554Z,9.90
2024-02-28T17:48:46.724Z,7.73
2024-02-28T17:51:13.498Z,7.40
2024-02-28T17:53:42.438Z,6.47
2024-02-28T17:56:09.978Z,8.03
2024-02-28T17:58:36.700Z,6.33
2024-02-28T18:01:06.783Z,6.47
2024-02-28T18:03:36.023Z,12.23
2024-02-28T18:06:02.933Z,8.90
2024-02-28T18:08:31.226Z,7.53
2024-02-28T18:10:58.387Z,6.47
2024-02-28T18:13:25.183Z,6.60
2024-02-28T18:15:54.361Z,6.93
2024-02-28T18:18:23.383Z,8.93
2024-02-28T18:20:54.813Z,7.03
2024-02-28T18:23:30.346Z,7.20
2024-02-28T18:26:01.223Z,6.00
2024-02-28T18:28:27.952Z,6.65
2024-02-28T18:30:56.936Z,6.20
2024-02-28T18:33:26.392Z,8.23
2024-02-28T18:35:53.623Z,5.40
2024-02-28T18:38:22.501Z,6.80
2024-02-28T18:40:51.364Z,6.37
2024-02-28T18:43:20.730Z,6.70
2024-02-28T18:45:47.608Z,15.50
2024-02-28T18:48:15.336Z,8.33
2024-02-28T18:50:42.718Z,7.55
2024-02-28T18:53:09.491Z,7.23
2024-02-28T18:55:38.444Z,7.90
2024-02-28T18:58:05.971Z,6.30
2024-02-28T19:00:32.914Z,6.43
2024-02-28T19:03:03.249Z,5.30
2024-02-28T19:05:30.361Z,5.03
2024-02-28T19:07:57.520Z,7.27
2024-02-28T19:10:24.355Z,8.10
2024-02-28T19:12:51.565Z,6.40
2024-02-28T19:15:18.385Z,7.27
2024-02-28T19:17:48.178Z,7.68
2024-02-28T19:20:15.004Z,8.97
2024-02-28T19:22:44.297Z,6.10
2024-02-28T19:25:11.668Z,7.77
2024-02-28T19:27:39.067Z,7.43
2024-02-28T19:30:06.495Z,6.40
2024-02-28T19:32:33.258Z,8.70
2024-02-28T19:35:02.628Z,7.30
2024-02-28T19:37:29.793Z,5.43
2024-02-28T19:39:58.384Z,9.53
2024-02-28T19:42:25.139Z,8.10
2024-02-28T19:44:51.904Z,6.00
2024-02-28T19:47:18.674Z,5.80
2024-02-28T19:49:47.621Z,5.83
2024-02-28T19:52:14.831Z,5.00
2024-02-28T19:54:44.094Z,5.13
2024-02-28T19:57:10.824Z,5.00
2024-02-28T19:59:40.101Z,7.93
2024-02-28T20:02:07.043Z,6.27
2024-02-28T20:04:34.229Z,4.83
2024-02-28T20:07:01.135Z,5.10
2024-02-28T20:09:27.872Z,5.78
2024-02-28T20:11:54.959Z,6.27
2024-02-28T20:14:23.889Z,4.73
2024-02-28T20:16:50.565Z,5.27
2024-02-28T20:19:17.364Z,5.17
2024-02-28T20:21:44.295Z,7.23
2024-02-28T20:24:11.124Z,6.20
2024-02-28T20:26:37.867Z,6.23
2024-02-28T20:29:04.655Z,5.40
2024-02-28T20:31:35.799Z,5.17
2024-02-28T20:34:02.541Z,5.13
2024-02-28T20:36:29.745Z,8.13
2024-02-28T20:39:00.333Z,5.67
2024-02-28T20:41:27.496Z,5.30
2024-02-28T20:43:54.743Z,6.67
2024-02-28T20:46:25.016Z,5.70
2024-02-28T20:48:54.188Z,5.90
2024-02-28T20:51:23.349Z,7.33
2024-02-28T20:53:55.597Z,5.30
2024-02-28T20:56:28.354Z,6.27
2024-02-28T20:58:56.457Z,5.93
2024-02-28T21:01:30.351Z,5.73
2024-02-28T21:04:00.325Z,8.75
2024-02-28T21:06:28.173Z,6.93
2024-02-28T21:08:57.892Z,6.67
2024-02-28T21:11:27.496Z,5.83
2024-02-28T21:13:55.344Z,6.40
2024-02-28T21:16:22.860Z,7.63
2024-02-28T21:18:53.071Z,6.20
2024-02-28T21:21:20.297Z,6.80
2024-02-28T21:23:47.171Z,6.03
2024-02-28T21:26:14.765Z,7.10
2024-02-28T21:28:42.103Z,7.33
2024-02-28T21:31:08.997Z,6.43
2024-02-28T21:33:35.896Z,6.77
2024-02-28T21:36:03.411Z,8.90
2024-02-28T21:38:30.722Z,7.17
2024-02-28T21:40:57.461Z,5.43
2024-02-28T21:43:24.278Z,6.83
2024-02-28T21:45:51.114Z,6.27
2024-02-28T21:48:20.118Z,6.73
2024-02-28T21:50:46.792Z,6.83
2024-02-28T21:53:13.750Z,7.97
2024-02-28T21:55:40.521Z,6.80
2024-02-28T21:58:09.979Z,8.43
2024-02-28T22:00:37.348Z,5.97
2024-02-28T22:03:04.316Z,6.87
2024-02-28T22:05:31.400Z,7.10
2024-02-28T22:08:00.730Z,7.83
2024-02-28T22:10:27.477Z,8.80
2024-02-28T22:12:54.330Z,6.67
2024-02-28T22:15:23.823Z,10.53
2024-02-28T22:17:54.527Z,9.27
2024-02-28T22:20:21.442Z,7.43
2024-02-28T22:22:48.208Z,9.00
2024-02-28T22:25:15.046Z,7.60
2024-02-28T22:27:44.117Z,8.97
2024-02-28T22:30:11.163Z,8.70
2024-02-28T22:32:38.065Z,8.43
2024-02-28T22:35:06.265Z,8.80
2024-02-28T22:37:34.263Z,7.40
2024-02-28T22:40:08.059Z,7.37
2024-02-28T22:42:37.342Z,7.80
2024-02-28T22:45:04.374Z,8.80
2024-02-28T22:47:31.543Z,6.20
2024-02-28T22:49:58.396Z,10.10
2024-02-28T22:52:25.124Z,6.87
2024-02-28T22:54:51.920Z,8.23
2024-02-28T22:57:23.264Z,8.50
2024-02-28T22:59:50.552Z,6.93
2024-02-28T23:02:17.330Z,7.80
2024-02-28T23:04:48.752Z,8.03
2024-02-28T23:07:15.611Z,9.43
2024-02-28T23:09:42.538Z,9.47
2024-02-28T23:12:09.540Z,11.57
2024-02-28T23:14:36.231Z,10.47
2024-02-28T23:17:05.592Z,12.25
2024-02-28T23:19:37.445Z,10.60
2024-02-28T23:22:04.340Z,11.60
2024-02-28T23:24:31.082Z,11.03
2024-02-28T23:27:02.384Z,10.37
2024-02-28T23:29:33.691Z,12.17
2024-02-28T23:32:02.736Z,11.80
2024-02-28T23:34:32.004Z,11.97
2024-02-28T23:36:58.902Z,12.33
2024-02-28T23:39:28.153Z,14.23
2024-02-28T23:41:54.856Z,11.80
2024-02-28T23:44:23.777Z,12.50
2024-02-28T23:46:52.753Z,12.90
2024-02-28T23:49:21.881Z,14.35
2024-02-28T23:51:48.631Z,13.57
2024-02-28T23:54:17.969Z,15.83
2024-02-28T23:56:44.741Z,13.80
2024-02-28T23:59:11.488Z,13.70
